createdAt,value
2019-02-05T00:01:06.953Z,5.37
2019-02-05T00:03:50.887Z,8.15
2019-02-05T00:06:41.268Z,7.17
2019-02-05T00:09:24.642Z,6.65
2019-02-05T00:12:14.423Z,5.03
2019-02-05T00:14:57.018Z,5.60
2019-02-05T00:17:46.859Z,8.37
2019-02-05T00:20:19.152Z,6.45
2019-02-05T00:23:10.521Z,9.50
2019-02-05T00:26:06.339Z,9.28
2019-02-05T00:29:04.427Z,12.33
2019-02-05T00:31:54.532Z,6.95
2019-02-05T00:34:37.144Z,6.50
2019-02-05T00:37:26.995Z,6.40
2019-02-05T00:40:10.619Z,7.75
2019-02-05T00:43:00.692Z,8.98
2019-02-05T00:45:43.631Z,6.53
2019-02-05T00:48:33.692Z,6.10
2019-02-05T00:51:16.332Z,8.35
2019-02-05T00:54:25.462Z,10.15
2019-02-05T00:57:27.815Z,7.37
2019-02-05T00:59:58.881Z,6.47
2019-02-05T01:05:48.453Z,5.92
2019-02-05T01:08:52.172Z,8.63
2019-02-05T01:11:42.304Z,7.62
2019-02-05T01:14:26.398Z,7.62
2019-02-05T01:17:09.591Z,9.40
2019-02-05T01:19:59.379Z,10.32
2019-02-05T01:22:42.588Z,8.68
2019-02-05T01:25:32.610Z,9.93
2019-02-05T01:28:15.703Z,7.28
2019-02-05T01:31:05.604Z,9.88
2019-02-05T01:34:08.997Z,7.72
2019-02-05T01:36:59.015Z,10.58
2019-02-05T01:39:41.573Z,6.70
2019-02-05T01:42:31.350Z,9.60
2019-02-05T01:45:35.325Z,7.75
2019-02-05T01:48:25.108Z,7.53
2019-02-05T01:51:08.064Z,5.92
2019-02-05T01:53:58.103Z,5.87
2019-02-05T01:56:41.137Z,5.83
2019-02-05T01:59:30.827Z,6.42
2019-02-05T02:02:13.565Z,5.80
2019-02-05T02:05:03.695Z,5.12
2019-02-05T02:07:46.379Z,5.47
2019-02-05T02:10:36.816Z,7.78
2019-02-05T02:13:19.356Z,6.50
2019-02-05T02:16:01.993Z,10.93
2019-02-05T02:18:52.127Z,7.90
2019-02-05T02:21:36.826Z,5.37
2019-02-05T02:24:26.869Z,7.37
2019-02-05T02:27:09.798Z,7.70
2019-02-05T02:29:59.609Z,7.95
2019-02-05T02:32:42.683Z,12.10
2019-02-05T02:35:32.480Z,8.65
2019-02-05T02:38:14.783Z,6.87
2019-02-05T02:41:23.647Z,5.80
2019-02-05T02:44:07.078Z,8.85
2019-02-05T02:46:56.852Z,6.53
2019-02-05T02:49:39.229Z,6.22
2019-02-05T02:52:29.007Z,6.95
2019-02-05T02:55:11.594Z,6.15
2019-02-05T02:58:01.652Z,6.80
2019-02-05T03:01:01.739Z,6.22
2019-02-05T03:03:45.135Z,9.58
2019-02-05T03:06:35.706Z,12.90
2019-02-05T03:09:18.917Z,5.83
2019-02-05T03:12:09.036Z,4.97
2019-02-05T03:14:51.869Z,4.92
2019-02-05T03:17:41.647Z,5.70
2019-02-05T03:20:22.306Z,4.95
2019-02-05T03:23:12.458Z,6.30
2019-02-05T03:25:55.154Z,6.87
2019-02-05T03:28:44.905Z,5.40
2019-02-05T03:31:27.238Z,6.40
2019-02-05T03:34:17.281Z,5.08
2019-02-05T03:37:21.271Z,5.78
2019-02-05T03:40:32.076Z,5.42
2019-02-05T03:43:14.821Z,6.00
2019-02-05T03:46:05.136Z,6.20
2019-02-05T03:48:49.137Z,6.67
2019-02-05T03:51:59.592Z,6.12
2019-02-05T03:55:09.094Z,5.30
2019-02-05T03:58:40.980Z,12.15
2019-02-05T04:01:25.634Z,7.30
2019-02-05T04:04:54.227Z,5.00
2019-02-05T04:07:41.369Z,7.53
2019-02-05T04:10:45.565Z,7.62
2019-02-05T04:13:56.446Z,7.78
2019-02-05T04:16:44.061Z,8.55
2019-02-05T04:19:38.993Z,5.40
2019-02-05T04:22:49.831Z,6.08
2019-02-05T04:25:36.542Z,5.03
2019-02-05T04:28:49.264Z,5.22
2019-02-05T04:31:36.499Z,6.45
2019-02-05T04:35:06.710Z,5.45
2019-02-05T04:37:51.514Z,4.97
2019-02-05T04:41:20.123Z,6.22
2019-02-05T04:44:22.334Z,7.60
2019-02-05T04:47:50.911Z,6.03
2019-02-05T04:50:37.601Z,5.92
2019-02-05T04:54:07.820Z,5.67
2019-02-05T04:56:52.556Z,5.92
2019-02-05T05:00:03.714Z,10.88
2019-02-05T05:02:48.340Z,9.20
2019-02-05T05:06:17.238Z,11.68
2019-02-05T05:09:19.645Z,5.72
2019-02-05T05:12:09.439Z,5.35
2019-02-05T05:14:50.111Z,5.58
2019-02-05T05:17:40.220Z,5.28
2019-02-05T05:20:23.569Z,6.53
2019-02-05T05:23:13.423Z,7.42
2019-02-05T05:25:56.142Z,6.00
2019-02-05T05:28:45.924Z,8.55
2019-02-05T05:31:28.800Z,8.13
2019-02-05T05:34:18.556Z,5.75
2019-02-05T05:37:07.453Z,5.62
2019-02-05T05:39:58.873Z,6.53
2019-02-05T05:43:02.245Z,10.95
2019-02-05T05:45:52.336Z,9.58
2019-02-05T05:48:22.700Z,6.65
2019-02-05T05:51:12.447Z,8.30
2019-02-05T05:53:55.327Z,8.18
2019-02-05T05:56:45.076Z,9.03
2019-02-05T05:59:28.041Z,7.28
2019-02-05T06:05:40.852Z,9.05
2019-02-05T06:08:30.705Z,6.70
2019-02-05T06:11:32.702Z,8.48
2019-02-05T06:14:22.839Z,8.73
2019-02-05T06:17:05.107Z,6.33
2019-02-05T06:19:55.162Z,7.33
2019-02-05T06:22:37.623Z,9.03
2019-02-05T06:25:27.372Z,8.05
2019-02-05T06:28:10.058Z,9.13
2019-02-05T06:30:59.835Z,8.58
2019-02-05T06:33:42.985Z,6.62
2019-02-05T06:36:32.717Z,5.83
2019-02-05T06:39:36.744Z,9.05
2019-02-05T06:45:53.774Z,5.80
2019-02-05T06:48:43.872Z,5.60
2019-02-05T06:51:33.649Z,6.47
2019-02-05T06:54:37.342Z,9.23
2019-02-05T06:57:27.472Z,8.53
2019-02-05T07:00:14.384Z,9.18
2019-02-05T07:02:55.357Z,4.58
2019-02-05T07:05:45.368Z,7.20
2019-02-05T07:08:29.503Z,4.87
2019-02-05T07:14:20.968Z,6.35
2019-02-05T07:17:11.119Z,7.85
2019-02-05T07:19:54.295Z,8.98
2019-02-05T07:22:44.353Z,9.53
2019-02-05T07:25:27.070Z,6.45
2019-02-05T07:28:17.155Z,7.30
2019-02-05T07:30:59.495Z,8.45
2019-02-05T07:33:49.266Z,6.83
2019-02-05T07:36:32.706Z,8.40
2019-02-05T07:39:22.471Z,5.10
2019-02-05T07:42:05.073Z,6.75
2019-02-05T07:44:55.209Z,11.70
2019-02-05T07:47:37.618Z,6.47
2019-02-05T07:53:56.357Z,5.55
2019-02-05T07:56:39.538Z,6.00
2019-02-05T07:59:29.336Z,14.58
2019-02-05T08:02:12.322Z,5.62
2019-02-05T08:05:02.264Z,8.08
2019-02-05T08:07:44.975Z,7.58
2019-02-05T08:10:35.410Z,10.00
2019-02-05T08:13:37.237Z,6.87
2019-02-05T08:16:27.021Z,7.37
2019-02-05T08:19:10.109Z,9.98
2019-02-05T08:25:10.406Z,11.73
2019-02-05T08:28:00.531Z,8.08
2019-02-05T08:30:44.386Z,7.75
2019-02-05T08:33:34.473Z,7.80
2019-02-05T08:36:15.207Z,8.28
2019-02-05T08:38:58.291Z,6.58
2019-02-05T08:41:48.069Z,6.40
2019-02-05T08:44:52.103Z,8.43
2019-02-05T08:47:42.450Z,7.22
2019-02-05T08:50:28.268Z,9.80
2019-02-05T08:53:18.100Z,6.97
2019-02-05T08:56:22.226Z,7.03
2019-02-05T09:02:39.823Z,8.35
2019-02-05T09:05:30.181Z,9.48
2019-02-05T09:08:20.049Z,7.05
2019-02-05T09:11:02.296Z,7.40
2019-02-05T09:13:52.085Z,8.15
2019-02-05T09:16:34.451Z,8.60
2019-02-05T09:19:24.593Z,8.95
2019-02-05T09:22:07.483Z,8.85
2019-02-05T09:24:57.612Z,8.88
2019-02-05T09:27:42.839Z,6.62
2019-02-05T09:30:52.277Z,7.30
2019-02-05T09:33:35.314Z,6.75
2019-02-05T09:36:25.724Z,9.38
2019-02-05T09:39:08.332Z,7.40
2019-02-05T09:41:58.132Z,6.67
2019-02-05T09:45:02.718Z,10.18
2019-02-05T09:48:11.867Z,10.60
2019-02-05T09:51:14.344Z,8.73
2019-02-05T09:54:23.414Z,11.25
2019-02-05T09:57:06.258Z,8.68
2019-02-05T09:59:56.336Z,10.95
2019-02-05T10:02:38.681Z,9.05
2019-02-05T10:05:49.508Z,10.05
2019-02-05T10:08:30.472Z,14.25
2019-02-05T10:11:13.189Z,11.38
2019-02-05T10:14:03.216Z,10.23
2019-02-05T10:16:48.118Z,10.35
2019-02-05T10:23:04.659Z,12.15
2019-02-05T10:25:54.437Z,10.72
2019-02-05T10:28:58.079Z,9.95
2019-02-05T10:31:48.166Z,9.60
2019-02-05T10:34:34.418Z,13.58
2019-02-05T10:40:51.084Z,11.55
2019-02-05T10:43:41.238Z,12.98
2019-02-05T10:46:31.034Z,12.18
2019-02-05T10:49:15.805Z,10.82
2019-02-05T10:52:06.247Z,9.08
2019-02-05T10:54:49.064Z,11.85
2019-02-05T10:57:39.411Z,12.70
2019-02-05T11:00:26.085Z,14.45
2019-02-05T11:03:16.116Z,18.12
2019-02-05T11:06:01.041Z,12.00
2019-02-05T11:08:51.111Z,14.38
2019-02-05T11:11:34.367Z,11.35
2019-02-05T11:14:24.420Z,14.98
2019-02-05T11:17:07.307Z,12.40
2019-02-05T11:19:57.122Z,16.87
2019-02-05T11:22:40.289Z,16.70
2019-02-05T11:25:30.365Z,17.15
2019-02-05T11:28:15.288Z,12.58
2019-02-05T11:31:05.430Z,16.50
2019-02-05T11:33:50.230Z,13.40
2019-02-05T11:36:40.125Z,15.68
2019-02-05T11:39:23.145Z,16.70
2019-02-05T11:42:06.612Z,14.78
2019-02-05T11:44:56.407Z,15.05
2019-02-05T11:47:41.118Z,15.70
2019-02-05T11:50:52.178Z,13.65
2019-02-05T11:53:35.188Z,13.93
2019-02-05T11:56:25.290Z,18.65
2019-02-05T11:59:06.079Z,19.27
2019-02-05T12:01:56.151Z,18.15
2019-02-05T12:04:59.724Z,16.40
2019-02-05T12:07:50.946Z,15.58
2019-02-05T12:10:54.527Z,19.15
2019-02-05T12:13:44.355Z,19.82
2019-02-05T12:16:27.586Z,16.57
2019-02-05T12:22:19.727Z,15.50
2019-02-05T12:25:31.160Z,19.32
2019-02-05T12:28:13.950Z,18.12
2019-02-05T12:31:03.741Z,15.50
2019-02-05T12:33:46.282Z,15.10
2019-02-05T12:36:36.050Z,16.02
2019-02-05T12:39:19.284Z,16.05
2019-02-05T12:42:09.342Z,20.90
2019-02-05T12:44:53.155Z,16.02
2019-02-05T12:51:09.267Z,13.28
2019-02-05T12:53:59.056Z,12.80
2019-02-05T12:56:48.857Z,13.30
2019-02-05T12:59:31.312Z,16.67
2019-02-05T13:02:21.506Z,19.50
2019-02-05T13:05:23.201Z,11.83
2019-02-05T13:08:12.982Z,17.10
2019-02-05T13:10:57.244Z,13.55
2019-02-05T13:14:06.692Z,14.15
2019-02-05T13:16:49.329Z,17.35
2019-02-05T13:19:39.383Z,14.65
2019-02-05T13:22:41.114Z,22.55
2019-02-05T13:25:52.217Z,21.55
2019-02-05T13:28:35.447Z,18.90
2019-02-05T13:31:25.791Z,17.62
2019-02-05T13:34:08.559Z,15.93
2019-02-05T13:36:58.457Z,16.93
2019-02-05T13:39:41.015Z,14.87
2019-02-05T13:42:30.848Z,15.08
2019-02-05T13:45:13.768Z,17.73
2019-02-05T13:51:32.323Z,20.40
2019-02-05T13:54:22.388Z,17.87
2019-02-05T13:57:05.205Z,17.60
2019-02-05T13:59:55.075Z,16.20
2019-02-05T14:02:38.058Z,13.85
2019-02-05T14:05:29.454Z,16.48
2019-02-05T14:08:12.213Z,24.80
2019-02-05T14:11:02.376Z,15.65
2019-02-05T14:14:06.062Z,16.73
2019-02-05T14:16:55.850Z,14.60
2019-02-05T14:19:38.639Z,16.07
2019-02-05T14:22:28.399Z,15.70
2019-02-05T14:25:30.476Z,17.65
2019-02-05T14:28:20.262Z,19.23
2019-02-05T14:31:05.102Z,20.75
2019-02-05T14:33:54.882Z,22.05
2019-02-05T14:36:37.728Z,23.80
2019-02-05T14:39:27.520Z,20.95
2019-02-05T14:42:09.901Z,20.82
2019-02-05T14:44:59.691Z,19.12
2019-02-05T14:47:42.535Z,16.52
2019-02-05T14:50:53.616Z,14.80
2019-02-05T14:53:36.770Z,23.10
2019-02-05T14:56:26.967Z,19.23
2019-02-05T14:59:09.517Z,16.20
2019-02-05T15:01:59.298Z,15.65
2019-02-05T15:04:40.285Z,19.25
2019-02-05T15:07:11.369Z,17.95
2019-02-05T15:09:55.317Z,14.20
2019-02-05T15:12:45.413Z,21.05
2019-02-05T15:15:29.677Z,17.55
2019-02-05T15:18:19.826Z,17.80
2019-02-05T15:21:02.739Z,16.20
2019-02-05T15:27:19.766Z,20.37
2019-02-05T15:30:31.314Z,20.85
2019-02-05T15:36:37.928Z,20.82
2019-02-05T15:39:20.853Z,19.17
2019-02-05T15:42:10.631Z,21.30
2019-02-05T15:44:53.893Z,18.77
2019-02-05T15:47:43.710Z,23.30
2019-02-05T15:50:26.110Z,15.32
2019-02-05T15:53:35.311Z,22.48
2019-02-05T15:56:18.133Z,22.58
2019-02-05T15:59:07.915Z,21.35
2019-02-05T16:01:50.964Z,21.97
2019-02-05T16:04:59.841Z,21.00
2019-02-05T16:07:42.355Z,21.62
2019-02-05T16:10:32.513Z,19.50
2019-02-05T16:13:36.704Z,21.30
2019-02-05T16:16:26.527Z,18.55
2019-02-05T16:19:29.904Z,22.50
2019-02-05T16:22:12.696Z,18.62
2019-02-05T16:28:29.891Z,22.75
2019-02-05T16:31:20.004Z,20.45
2019-02-05T16:34:02.515Z,22.35
2019-02-05T16:36:52.581Z,18.73
2019-02-05T16:39:35.820Z,17.25
2019-02-05T16:42:25.613Z,18.50
2019-02-05T16:45:09.553Z,23.35
2019-02-05T16:47:59.635Z,24.43
2019-02-05T16:50:47.791Z,19.85
2019-02-05T16:53:39.710Z,23.35
2019-02-05T16:56:22.284Z,23.07
2019-02-05T16:59:12.086Z,25.30
2019-02-05T17:01:57.118Z,22.52
2019-02-05T17:04:46.775Z,21.85
2019-02-05T17:07:29.400Z,26.55
2019-02-05T17:10:40.164Z,24.92
2019-02-05T17:13:23.074Z,25.48
2019-02-05T17:16:12.859Z,24.32
2019-02-05T17:18:55.400Z,25.02
2019-02-05T17:21:38.412Z,24.43
2019-02-05T17:24:28.612Z,21.17
2019-02-05T17:27:11.612Z,24.30
2019-02-05T17:30:01.413Z,22.70
2019-02-05T17:32:42.066Z,23.75
2019-02-05T17:35:24.343Z,22.75
2019-02-05T17:38:14.464Z,27.50
2019-02-05T17:40:57.476Z,23.15
2019-02-05T17:43:50.226Z,24.27
2019-02-05T17:46:50.894Z,27.07
2019-02-05T17:49:40.652Z,21.95
2019-02-05T17:52:23.485Z,25.77
2019-02-05T17:55:34.306Z,23.90
2019-02-05T17:58:16.761Z,25.95
2019-02-05T18:04:28.918Z,24.55
2019-02-05T18:07:18.998Z,22.25
2019-02-05T18:10:30.183Z,23.25
2019-02-05T18:13:14.394Z,23.95
2019-02-05T18:16:25.250Z,28.47
2019-02-05T18:19:08.325Z,23.45
2019-02-05T18:22:17.331Z,30.90
2019-02-05T18:25:00.471Z,26.30
2019-02-05T18:27:51.214Z,29.98
2019-02-05T18:30:36.897Z,21.90
2019-02-05T18:33:26.978Z,24.32
2019-02-05T18:36:11.720Z,28.00
2019-02-05T18:39:21.167Z,27.15
2019-02-05T18:42:03.761Z,28.55
2019-02-05T18:45:12.659Z,23.83
2019-02-05T18:47:56.178Z,26.23
2019-02-05T18:50:46.685Z,21.87
2019-02-05T18:53:31.945Z,31.17
2019-02-05T18:59:16.767Z,26.80
2019-02-05T19:01:47.339Z,22.15
2019-02-05T19:04:18.210Z,22.52
2019-02-05T19:06:48.835Z,25.48
2019-02-05T19:09:19.242Z,40.83
2019-02-05T19:11:49.984Z,27.80
2019-02-05T19:14:23.200Z,22.73
2019-02-05T19:16:53.021Z,30.15
2019-02-05T19:19:23.376Z,22.62
2019-02-05T19:21:53.736Z,29.23
2019-02-05T19:24:31.482Z,23.75
2019-02-05T19:27:01.831Z,25.10
2019-02-05T19:29:32.730Z,22.62
2019-02-05T19:32:03.442Z,27.60
2019-02-05T19:34:33.805Z,26.73
2019-02-05T19:37:04.155Z,29.67
2019-02-05T19:39:34.523Z,26.27
2019-02-05T19:42:05.152Z,28.23
2019-02-05T19:44:37.264Z,30.27
2019-02-05T19:47:07.992Z,26.05
2019-02-05T19:49:38.391Z,24.77
2019-02-05T19:52:09.350Z,27.60
2019-02-05T19:54:39.713Z,21.40
2019-02-05T19:57:10.695Z,30.80
2019-02-05T19:59:41.698Z,30.27
2019-02-05T20:02:12.594Z,31.33
2019-02-05T20:04:43.354Z,29.25
2019-02-05T20:07:14.292Z,25.75
2019-02-05T20:09:44.647Z,29.40
2019-02-05T20:12:15.005Z,28.67
2019-02-05T20:14:45.965Z,25.40
2019-02-05T20:17:16.749Z,26.42
2019-02-05T20:19:47.079Z,34.08
2019-02-05T20:22:17.429Z,32.33
2019-02-05T20:24:47.805Z,26.70
2019-02-05T20:27:18.420Z,28.55
2019-02-05T20:29:49.384Z,32.88
2019-02-05T20:32:19.958Z,29.72
2019-02-05T20:34:50.584Z,37.30
2019-02-05T20:37:20.918Z,29.07
2019-02-05T20:39:51.653Z,29.65
2019-02-05T20:42:22.029Z,27.35
2019-02-05T20:44:52.563Z,26.85
2019-02-05T20:47:23.295Z,26.97
2019-02-05T20:49:53.647Z,30.35
2019-02-05T20:52:24.127Z,25.00
2019-02-05T20:54:54.728Z,33.18
2019-02-05T20:57:25.094Z,35.70
2019-02-05T20:59:55.791Z,24.50
2019-02-05T21:02:26.905Z,28.45
2019-02-05T21:04:57.495Z,28.85
2019-02-05T21:07:27.828Z,30.32
2019-02-05T21:09:58.586Z,25.85
2019-02-05T21:12:29.281Z,35.15
2019-02-05T21:14:59.887Z,28.62
2019-02-05T21:17:30.810Z,30.43
2019-02-05T21:20:01.621Z,31.77
2019-02-05T21:22:32.052Z,31.07
2019-02-05T21:25:02.726Z,28.10
2019-02-05T21:27:33.616Z,29.23
2019-02-05T21:30:09.960Z,32.03
2019-02-05T21:32:40.313Z,28.20
2019-02-05T21:35:11.063Z,34.00
2019-02-05T21:37:41.463Z,32.20
2019-02-05T21:40:25.770Z,33.92
2019-02-05T21:42:56.178Z,35.90
2019-02-05T21:45:31.430Z,34.30
2019-02-05T21:48:01.760Z,29.95
2019-02-05T21:50:32.409Z,32.10
2019-02-05T21:53:03.574Z,31.37
2019-02-05T21:55:34.364Z,28.07
2019-02-05T21:58:05.346Z,30.17
2019-02-05T22:00:38.704Z,31.87
2019-02-05T22:03:09.046Z,29.18
2019-02-05T22:05:39.403Z,28.15
2019-02-05T22:08:10.058Z,27.48
2019-02-05T22:10:40.543Z,28.70
2019-02-05T22:13:11.246Z,28.23
2019-02-05T22:15:41.601Z,30.25
2019-02-05T22:18:12.431Z,33.88
2019-02-05T22:20:42.831Z,27.77
2019-02-05T22:23:14.234Z,27.37
2019-02-05T22:25:45.145Z,36.38
2019-02-05T22:28:16.397Z,28.07
2019-02-05T22:30:47.106Z,31.65
2019-02-05T22:33:17.439Z,27.27
2019-02-05T22:35:47.784Z,28.77
2019-02-05T22:38:18.161Z,29.32
2019-02-05T22:40:48.527Z,24.23
2019-02-05T22:43:19.017Z,27.40
2019-02-05T22:45:49.349Z,29.45
2019-02-05T22:48:19.692Z,31.07
2019-02-05T22:50:50.380Z,29.72
2019-02-05T22:53:21.042Z,28.85
2019-02-05T22:55:51.721Z,27.93
2019-02-05T22:58:22.508Z,31.97
2019-02-05T23:01:18.370Z,27.27
2019-02-05T23:03:54.996Z,25.72
2019-02-05T23:06:48.043Z,31.60
2019-02-05T23:09:35.748Z,26.87
2019-02-05T23:12:22.791Z,26.65
2019-02-05T23:15:01.534Z,24.57
2019-02-05T23:17:32.154Z,23.75
2019-02-05T23:20:02.799Z,27.13
2019-02-05T23:22:33.158Z,28.77
2019-02-05T23:25:04.593Z,30.95
2019-02-05T23:27:35.220Z,33.48
2019-02-05T23:30:16.507Z,25.77
2019-02-05T23:32:46.858Z,26.73
2019-02-05T23:35:17.229Z,24.30
2019-02-05T23:37:47.889Z,29.32
2019-02-05T23:40:18.495Z,27.10
2019-02-05T23:42:48.831Z,24.50
2019-02-05T23:45:19.498Z,26.07
2019-02-05T23:47:50.107Z,24.02
2019-02-05T23:50:20.437Z,27.50
2019-02-05T23:52:51.177Z,25.97
2019-02-05T23:55:22.140Z,25.08
2019-02-05T23:57:52.753Z,23.60
